Time;durP1;ratioP1;P1;durP2;ratioP2;P2;SDS_P1;SDS_P2;PMS_P1;PMS_P2;Temp;Humidity;BMP_temperature;BMP_pressure;BME280_temperature;BME280_humidity;BME280_pressure;Samples;Min_cycle;Max_cycle;Signal;HPM_P1;HPM_P2
2022/01/07 10:40:29;;;;;;;2.58;2.10;;;12.20;55.30;;;12.45;57.43;99157.72;5149053;27;20284;-34
2022/01/07 10:43:12;;;;;;;2.05;1.85;;;12.30;57.70;;;12.63;58.53;99141.59;5119774;28;20197;-34
2022/01/07 10:45:40;;;;;;;3.08;2.00;;;12.50;59.40;;;12.92;58.94;99147.72;5110093;28;20178;-33
2022/01/07 10:48:07;;;;;;;1.50;1.40;;;12.70;61.10;;;13.02;59.10;99122.63;5092504;28;20230;-39
2022/01/07 10:50:36;;;;;;;1.92;1.70;;;13.00;62.10;;;13.39;59.26;99145.38;5110693;28;20194;-37
2022/01/07 10:53:28;;;;;;;3.15;1.48;;;13.20;62.60;;;13.65;59.43;99142.16;5091667;28;20276;-39
2022/01/07 10:55:58;;;;;;;1.50;1.40;;;13.50;62.90;;;13.83;59.08;99139.69;5060116;28;20611;-38
2022/01/07 10:58:24;;;;;;;1.52;1.40;;;13.70;62.90;;;13.99;59.24;99139.97;5091692;28;20209;-36
2022/01/07 11:00:50;;;;;;;1.55;1.33;;;13.90;62.90;;;14.13;59.16;99132.69;5075202;28;20228;-39
2022/01/07 11:03:16;;;;;;;2.65;1.35;;;14.10;62.90;;;14.27;58.97;99140.03;5109616;28;20634;-39
2022/01/07 11:05:42;;;;;;;1.67;1.35;;;14.30;62.80;;;14.37;59.12;99133.88;5075043;28;20228;-39
2022/01/07 11:08:08;;;;;;;1.40;1.30;;;14.40;62.70;;;14.45;59.04;99128.81;5074825;28;20216;-39
2022/01/07 11:10:36;;;;;;;1.20;1.10;;;14.60;62.70;;;14.54;59.27;99134.94;5074401;28;20666;-38
2022/01/07 11:13:02;;;;;;;2.17;1.67;;;14.70;62.60;;;14.60;59.36;99136.97;5091641;28;20224;-38
2022/01/07 11:15:28;;;;;;;1.60;1.30;;;14.80;62.70;;;14.70;59.58;99140.34;5091395;28;20190;-38
2022/01/07 11:17:54;;;;;;;1.48;1.35;;;14.90;62.70;;;14.74;59.38;99136.47;5109980;28;20217;-38
2022/01/07 11:20:24;;;;;;;1.30;1.20;;;15.00;62.70;;;14.79;59.45;99128.28;5109707;28;20707;-39
2022/01/07 11:22:53;;;;;;;1.80;1.30;;;15.10;62.80;;;14.84;59.53;99129.47;5091983;28;20198;-38
2022/01/07 11:25:19;;;;;;;1.38;1.27;;;15.10;62.70;;;14.93;59.71;99124.38;5056301;28;20194;-39
2022/01/07 11:27:58;;;;;;;1.30;1.13;;;15.20;62.70;;;14.95;59.92;99112.06;5109778;28;20178;-38
2022/01/07 11:30:28;;;;;;;1.58;1.48;;;15.30;63.60;;;14.99;59.69;99105.63;5092534;28;20184;-38
2022/01/07 11:32:55;;;;;;;1.38;1.27;;;15.30;63.10;;;15.10;59.49;99102.81;5059258;28;20255;-38
2022/01/07 11:35:21;;;;;;;1.25;1.15;;;15.40;63.10;;;14.98;58.75;99084.03;5074249;28;20186;-38
2022/01/07 11:37:51;;;;;;;1.20;1.10;;;15.50;62.70;;;14.84;59.03;99071.50;5109523;28;20643;-38
2022/01/07 11:40:29;;;;;;;1.45;1.30;;;15.50;62.40;;;15.08;58.91;99113.34;5109033;28;20578;-38
2022/01/07 11:42:56;;;;;;;1.20;1.10;;;15.50;62.10;;;15.06;58.46;99109.28;5109805;28;20227;-38
2022/01/07 11:45:34;;;;;;;1.20;1.10;;;15.50;61.90;;;14.94;58.40;99090.47;5074165;28;20194;-39
2022/01/07 11:48:09;;;;;;;1.10;1.00;;;15.50;61.60;;;15.07;58.79;99105.72;5091713;28;20650;-38
2022/01/07 11:50:56;;;;;;;0.93;0.90;;;15.50;61.60;;;15.01;58.99;99085.50;5083840;28;20189;-38
2022/01/07 11:53:22;;;;;;;1.00;1.00;;;15.50;61.80;;;15.20;59.23;99106.19;5095821;28;20170;-38
2022/01/07 11:55:49;;;;;;;2.10;1.20;;;15.60;62.30;;;15.31;59.33;99102.56;5077665;28;20187;-38
2022/01/07 11:58:16;;;;;;;1.60;1.38;;;15.60;62.50;;;15.33;59.94;99104.03;5095349;28;20210;-38
2022/01/07 12:00:59;;;;;;;1.73;1.30;;;15.60;62.80;;;15.37;60.04;99105.38;5061085;28;20182;-38
2022/01/07 12:03:32;;;;;;;1.23;1.13;;;15.60;63.20;;;15.36;59.62;99095.94;5095037;28;20243;-38
2022/01/07 12:06:01;;;;;;;1.73;1.20;;;15.70;63.40;;;15.31;59.82;99092.16;5095205;28;20214;-39
2022/01/07 12:09:20;;;;;;;2.78;1.30;;;15.70;63.30;;;15.20;60.48;99080.19;5060737;28;20295;-38
2022/01/07 12:12:06;;;;;;;1.42;1.33;;;15.70;63.40;;;15.21;60.79;99074.84;5083157;28;20352;-39
2022/01/07 12:14:37;;;;;;;1.88;1.40;;;15.70;63.70;;;15.19;61.09;99057.75;5044130;28;20285;-38
2022/01/07 12:17:05;;;;;;;1.55;1.20;;;15.80;64.00;;;15.37;60.89;99081.97;5077399;28;20677;-39
2022/01/07 12:19:37;;;;;;;1.30;1.20;;;15.80;64.00;;;15.46;60.87;99081.09;5077318;28;20292;-39
2022/01/07 12:22:07;;;;;;;2.97;1.42;;;15.90;64.20;;;15.49;61.15;99079.97;5095586;28;20244;-39
2022/01/07 12:24:33;;;;;;;1.33;1.20;;;15.90;64.10;;;15.51;60.83;99065.84;5039471;28;20210;-38
2022/01/07 12:27:08;;;;;;;1.35;1.23;;;16.00;64.20;;;15.56;61.06;99071.47;5040455;28;20529;-39
2022/01/07 12:29:36;;;;;;;1.30;1.20;;;16.00;64.00;;;15.57;61.13;99069.66;5074638;28;20179;-38
2022/01/07 12:32:04;;;;;;;1.65;1.20;;;16.10;64.00;;;15.56;61.11;99066.25;5073932;28;20662;-39
2022/01/07 12:34:35;;;;;;;2.25;1.10;;;16.10;64.00;;;15.54;61.08;99051.78;5073561;28;20215;-39
2022/01/07 12:37:03;;;;;;;2.97;1.40;;;16.10;64.00;;;15.59;61.29;99054.72;5074870;28;20206;-38
2022/01/07 12:39:38;;;;;;;1.58;1.48;;;16.20;64.20;;;15.61;61.25;99045.00;5065878;28;20259;-39
2022/01/07 12:42:05;;;;;;;1.60;1.50;;;16.20;64.10;;;15.62;61.27;99044.03;5094917;28;20275;-39
2022/01/07 12:44:41;;;;;;;1.25;1.15;;;16.20;64.10;;;15.65;61.25;99038.50;5076268;28;20194;-39
2022/01/07 12:47:08;;;;;;;1.42;1.33;;;16.20;64.10;;;15.66;61.25;99036.72;5094121;28;20230;-39
2022/01/07 12:49:42;;;;;;;1.65;1.10;;;16.30;64.10;;;15.72;61.16;99030.94;5093362;28;20183;-38
2022/01/07 12:52:22;;;;;;;1.75;1.40;;;16.30;64.10;;;15.44;60.97;98989.41;5093429;28;20181;-38
2022/01/07 12:54:56;;;;;;;1.77;1.50;;;16.30;64.00;;;15.71;60.72;99019.72;5093701;28;20886;-38
2022/01/07 12:57:27;;;;;;;1.17;1.08;;;16.30;64.00;;;15.73;60.51;99025.56;5093324;28;20638;-39
2022/01/07 13:00:09;;;;;;;1.98;1.38;;;16.30;63.70;;;15.75;60.51;99028.84;5094509;28;20222;-39
2022/01/07 13:02:35;;;;;;;1.27;1.15;;;16.30;63.50;;;15.65;60.78;98996.13;5093079;28;20186;-38
2022/01/07 13:05:20;;;;;;;1.40;1.30;;;16.30;63.50;;;15.78;60.86;99007.72;5076405;28;20229;-38
2022/01/07 13:07:58;;;;;;;1.30;1.20;;;16.30;63.70;;;15.83;60.56;99000.28;5093297;28;20265;-39
2022/01/07 13:10:26;;;;;;;1.75;1.45;;;16.40;63.80;;;15.89;60.85;99001.47;5092629;28;20190;-40
2022/01/07 13:12:54;;;;;;;1.50;1.40;;;16.40;63.70;;;15.65;60.85;98955.28;5094317;28;20213;-39
2022/01/07 13:15:53;;;;;;;1.33;1.20;;;16.40;64.00;;;15.83;61.67;98994.25;5092980;28;20194;-39
2022/01/07 13:18:28;;;;;;;1.70;1.60;;;16.40;64.40;;;15.92;61.86;98988.13;5094200;28;20251;-38
2022/01/07 13:21:13;;;;;;;1.38;1.27;;;16.30;64.70;;;15.84;62.49;98986.31;5093250;28;20225;-39
2022/01/07 13:23:47;;;;;;;1.35;1.25;;;16.30;65.20;;;15.81;62.60;98983.22;5078725;28;20554;-39
2022/01/07 13:26:14;;;;;;;1.23;1.13;;;16.30;65.40;;;15.79;62.67;98985.13;5076488;28;20232;-46
2022/01/07 13:28:43;;;;;;;1.85;1.50;;;16.30;65.50;;;15.80;62.69;98985.00;5075932;28;20192;-39
2022/01/07 13:31:11;;;;;;;1.40;1.30;;;16.30;65.70;;;15.74;62.68;98980.38;5092871;28;20183;-39
2022/01/07 13:33:38;;;;;;;1.63;1.30;;;16.30;65.80;;;15.78;62.81;98978.31;5092468;28;20186;-39
2022/01/07 13:36:07;;;;;;;2.00;1.40;;;16.30;65.90;;;15.75;62.88;98984.63;5075941;28;20197;-39
2022/01/07 13:38:34;;;;;;;1.27;1.17;;;16.30;66.00;;;15.75;63.01;98978.59;5091931;28;20245;-39
2022/01/07 13:41:11;;;;;;;1.50;1.40;;;16.30;65.90;;;15.59;63.26;98950.72;5093727;28;20260;-39
2022/01/07 13:43:42;;;;;;;1.38;1.27;;;16.30;65.70;;;15.66;63.11;98971.72;5092407;28;20527;-40
2022/01/07 13:46:17;;;;;;;1.48;1.10;;;16.20;65.90;;;15.66;63.28;98974.31;5076152;28;20190;-39
2022/01/07 13:49:10;;;;;;;2.00;1.35;;;16.20;66.00;;;15.66;63.76;98982.13;5076294;28;20177;-39
2022/01/07 13:51:37;;;;;;;2.20;1.60;;;16.20;66.10;;;15.62;63.72;98954.78;5092387;28;20561;-39
2022/01/07 13:54:13;;;;;;;1.40;1.30;;;16.20;66.40;;;15.70;64.01;98967.84;5092380;28;20190;-38
2022/01/07 21:31:57;;;;;;;1.52;1.00;;;13.80;78.40;;;13.90;81.77;98828.75;5130565;27;20285;-34
2022/01/07 21:34:23;;;;;;;0.80;0.80;;;13.80;79.50;;;14.13;81.12;98840.34;5126958;28;20178;-35
2022/01/07 21:36:49;;;;;;;0.82;0.82;;;13.90;80.30;;;14.27;80.65;98852.00;5075846;28;20543;-35
2022/01/07 21:39:15;;;;;;;0.80;0.80;;;14.10;81.40;;;14.42;79.26;98847.94;5111857;28;20189;-35
2022/01/07 21:41:41;;;;;;;0.90;0.82;;;14.20;80.40;;;14.56;78.39;98851.81;5111751;28;20178;-36
2022/01/07 21:44:08;;;;;;;0.82;0.82;;;14.40;80.00;;;14.54;77.99;98826.00;5127279;28;20630;-35
2022/01/07 21:46:34;;;;;;;1.13;0.88;;;14.60;79.70;;;14.82;76.53;98852.69;5076395;28;20587;-36
2022/01/07 21:49:00;;;;;;;1.17;1.08;;;14.70;78.70;;;14.88;75.13;98833.09;5093439;28;20178;-36
2022/01/07 21:51:27;;;;;;;0.90;0.90;;;14.90;78.00;;;15.12;73.78;98848.84;5110883;28;20221;-36
2022/01/07 21:53:57;;;;;;;0.90;0.90;;;15.10;77.20;;;15.20;73.00;98835.91;5093079;28;20182;-36
2022/01/07 21:56:24;;;;;;;1.35;1.25;;;15.20;76.30;;;15.32;72.23;98844.25;5093126;28;20173;-37
2022/01/07 21:58:49;;;;;;;1.05;1.00;;;15.30;75.50;;;15.41;71.57;98835.50;5076050;28;20254;-36
2022/01/07 22:01:16;;;;;;;1.35;1.00;;;15.50;74.90;;;15.38;70.49;98825.44;5107235;28;20579;-36
2022/01/07 22:03:42;;;;;;;0.90;0.73;;;15.60;74.30;;;15.50;70.62;98829.38;5113482;28;20178;-36
2022/01/07 22:06:08;;;;;;;1.13;1.00;;;15.70;73.70;;;15.61;69.70;98836.97;5131404;28;20181;-36
2022/01/07 22:08:33;;;;;;;1.00;1.00;;;15.80;73.90;;;15.67;69.61;98820.72;5095969;28;20230;-36
2022/01/07 22:11:00;;;;;;;1.05;1.05;;;15.90;72.70;;;15.37;69.25;98769.22;5113206;28;20208;-35
2022/01/07 22:13:28;;;;;;;1.15;1.10;;;16.00;72.30;;;15.70;68.96;98809.19;5096133;28;20544;-35
2022/01/07 22:15:54;;;;;;;0.85;0.85;;;16.10;71.90;;;15.81;68.94;98819.31;5113205;28;20219;-36
2022/01/07 22:18:21;;;;;;;0.77;0.77;;;16.20;71.60;;;15.86;68.42;98819.66;5113150;28;20181;-35
2022/01/07 22:20:48;;;;;;;1.40;1.00;;;16.20;71.20;;;15.80;68.19;98807.28;5131477;28;20174;-36
2022/01/07 22:23:14;;;;;;;0.90;0.90;;;16.30;70.90;;;15.90;67.95;98807.94;5113006;28;20180;-34
2022/01/07 22:25:40;;;;;;;0.80;0.80;;;16.40;70.60;;;15.96;67.89;98813.34;5112965;28;20205;-35
2022/01/07 22:28:06;;;;;;;0.80;0.80;;;16.40;70.30;;;16.01;67.12;98804.25;5112810;28;20180;-35
2022/01/07 22:30:32;;;;;;;1.00;0.90;;;16.50;70.10;;;15.90;67.09;98768.94;5108566;28;20236;-35
2022/01/07 22:32:58;;;;;;;1.13;0.90;;;16.50;69.80;;;16.05;67.05;98779.56;5109286;28;20201;-35
2022/01/07 22:35:24;;;;;;;0.98;0.98;;;16.60;69.50;;;16.13;66.60;98793.38;5110356;28;20638;-35
2022/01/07 22:37:51;;;;;;;1.20;1.10;;;16.70;69.40;;;16.17;66.46;98786.88;5109185;28;20190;-36
2022/01/07 22:40:17;;;;;;;1.00;1.00;;;16.70;69.10;;;16.19;66.08;98782.31;5110459;28;20519;-35
2022/01/07 22:42:44;;;;;;;0.98;0.90;;;16.70;69.00;;;16.21;66.10;98767.38;5081773;28;20182;-35
2022/01/07 22:45:12;;;;;;;1.00;1.00;;;16.80;68.70;;;16.13;65.81;98751.75;5096885;28;20182;-35
2022/01/07 22:47:40;;;;;;;0.85;0.85;;;16.80;68.40;;;16.11;65.94;98743.28;5096885;28;20197;-35
2022/01/07 22:50:07;;;;;;;0.95;0.90;;;16.90;68.40;;;16.25;65.49;98760.84;5078805;28;20243;-35
2022/01/07 22:52:33;;;;;;;0.93;0.93;;;16.90;68.20;;;16.26;65.65;98752.06;5078623;28;20549;-35
2022/01/07 22:55:00;;;;;;;0.57;0.57;;;17.00;68.10;;;16.36;65.36;98757.13;5095298;28;20270;-35
2022/01/07 22:57:25;;;;;;;1.85;0.90;;;17.00;67.80;;;16.34;65.13;98754.69;5096505;28;20182;-35
2022/01/07 22:59:51;;;;;;;0.82;0.82;;;17.00;67.60;;;16.38;64.87;98739.56;5095188;28;20182;-36
2022/01/07 23:02:17;;;;;;;0.70;0.70;;;17.10;67.50;;;16.44;64.66;98732.88;5096202;28;20712;-35
